Beloeil, Canada
Current Conditions -  °F | °C
As of 9:00 AM on Wednesday 26 Nov 2014 (Local Time) from CYHU Reporting Station
Broken Clouds Broken Clouds  
Wind Chill: 27°   Ceiling: 16000
Heat Index: 32°   Visibility: 9mi
Dew Point: 18°   Wind: 5mph
Humidity: 55%   Direction: 290°WNW
Pressure: 30.27"   Gusts: NA
Location:  45.57°N, 73.2°W
Report Text: CYHU 261400Z AUTO 29004KT 9SM BKN160 00/M08 A3027 RMK PRESRR SLP252
Loading
Personal Weather Stations






























Interactive Weather Map New forecast layout! Learn more

10-Day Weather Forecast

Advertisements
Track Severe Weather on mobile